createdAt,value
2022-08-10T00:01:53.307Z,4.28
2022-08-10T00:04:22.439Z,5.93
2022-08-10T00:06:53.386Z,4.00
2022-08-10T00:09:20.524Z,5.10
2022-08-10T00:11:47.174Z,4.57
2022-08-10T00:14:13.795Z,4.47
2022-08-10T00:16:40.580Z,5.90
2022-08-10T00:19:07.238Z,3.85
2022-08-10T00:21:33.866Z,4.53
2022-08-10T00:24:00.582Z,4.10
2022-08-10T00:26:27.190Z,6.35
2022-08-10T00:29:13.795Z,3.70
2022-08-10T00:31:58.638Z,4.65
2022-08-10T00:34:27.624Z,4.82
2022-08-10T00:36:54.869Z,5.40
2022-08-10T00:39:21.491Z,5.65
2022-08-10T00:42:07.709Z,4.00
2022-08-10T00:44:38.934Z,3.90
2022-08-10T00:47:06.452Z,4.03
2022-08-10T00:49:33.363Z,3.63
2022-08-10T00:52:00.105Z,3.55
2022-08-10T00:54:26.925Z,4.30
2022-08-10T00:57:15.486Z,4.95
2022-08-10T00:59:58.127Z,5.70
2022-08-10T01:02:31.925Z,6.00
2022-08-10T01:05:01.564Z,5.25
2022-08-10T01:08:08.028Z,4.00
2022-08-10T01:11:06.517Z,3.63
2022-08-10T01:13:59.672Z,4.68
2022-08-10T01:16:32.503Z,4.07
2022-08-10T01:19:10.041Z,4.47
2022-08-10T01:22:03.778Z,5.80
2022-08-10T01:24:40.108Z,4.10
2022-08-10T01:27:27.374Z,4.13
2022-08-10T01:29:57.216Z,4.97
2022-08-10T01:32:33.286Z,4.22
2022-08-10T01:35:10.728Z,3.60
2022-08-10T01:37:43.590Z,4.32
2022-08-10T01:40:22.998Z,4.45
2022-08-10T01:42:51.071Z,5.15
2022-08-10T01:45:18.878Z,5.40
2022-08-10T01:48:05.004Z,5.43
2022-08-10T01:50:59.471Z,6.80
2022-08-10T01:53:41.075Z,4.57
2022-08-10T01:56:13.371Z,4.90
2022-08-10T01:58:41.299Z,3.65
2022-08-10T02:01:10.041Z,4.90
2022-08-10T02:04:03.764Z,4.60
2022-08-10T02:06:27.088Z,4.13
2022-08-10T02:09:05.870Z,4.68
2022-08-10T02:12:06.010Z,5.15
2022-08-10T02:14:21.949Z,5.47
2022-08-10T02:16:51.371Z,4.10
2022-08-10T02:19:20.830Z,3.50
2022-08-10T02:22:35.270Z,5.60
2022-08-10T02:24:35.858Z,4.00
2022-08-10T02:27:03.267Z,4.40
2022-08-10T02:29:30.194Z,4.82
2022-08-10T02:31:56.965Z,5.35
2022-08-10T02:34:24.924Z,7.20
2022-08-10T02:36:54.784Z,5.18
2022-08-10T02:39:22.029Z,7.00
2022-08-10T02:45:19.342Z,3.90
2022-08-10T02:45:30.758Z,5.72
2022-08-10T02:48:16.722Z,4.80
2022-08-10T02:50:43.738Z,5.40
2022-08-10T02:53:51.741Z,6.37
2022-08-10T02:56:12.533Z,4.47
2022-08-10T02:58:46.434Z,6.32
2022-08-10T03:01:15.764Z,4.03
2022-08-10T03:03:52.231Z,6.60
2022-08-10T03:06:21.125Z,4.23
2022-08-10T03:08:49.334Z,4.25
2022-08-10T03:12:35.594Z,5.15
2022-08-10T03:14:15.536Z,5.68
2022-08-10T03:16:42.633Z,4.45
2022-08-10T03:20:35.313Z,5.70
2022-08-10T03:21:57.435Z,5.18
2022-08-10T03:24:30.354Z,4.03
2022-08-10T03:27:00.132Z,3.53
2022-08-10T03:29:27.114Z,3.97
2022-08-10T03:31:54.202Z,3.63
2022-08-10T03:34:22.318Z,6.43
2022-08-10T03:37:00.525Z,4.50
2022-08-10T03:39:27.695Z,4.00
2022-08-10T03:41:57.712Z,3.95
2022-08-10T03:44:27.844Z,5.20
2022-08-10T03:46:55.121Z,5.38
2022-08-10T03:49:22.331Z,4.38
2022-08-10T03:51:51.408Z,4.38
2022-08-10T03:54:18.950Z,5.22
2022-08-10T03:56:46.010Z,6.07
2022-08-10T03:59:14.344Z,5.60
2022-08-10T04:02:46.986Z,6.78
2022-08-10T04:04:31.481Z,4.15
2022-08-10T04:06:59.612Z,4.95
2022-08-10T04:09:42.890Z,6.30
2022-08-10T04:12:15.395Z,6.63
2022-08-10T04:14:50.850Z,4.93
2022-08-10T04:18:04.013Z,5.32
2022-08-10T04:20:12.229Z,3.90
2022-08-10T04:22:40.152Z,5.67
2022-08-10T04:25:08.549Z,4.13
2022-08-10T04:27:35.201Z,4.10
2022-08-10T04:30:01.910Z,4.35
2022-08-10T04:32:31.428Z,5.68
2022-08-10T04:34:58.652Z,6.57
2022-08-10T04:37:25.897Z,4.32
2022-08-10T04:39:52.653Z,4.30
2022-08-10T04:42:19.511Z,5.22
2022-08-10T04:44:46.876Z,4.45
2022-08-10T04:47:13.533Z,3.90
2022-08-10T04:49:54.747Z,4.43
2022-08-10T04:52:23.340Z,4.22
2022-08-10T04:54:51.966Z,3.97
2022-08-10T04:57:18.605Z,4.13
2022-08-10T04:59:45.210Z,5.10
2022-08-10T05:02:31.666Z,4.78
2022-08-10T05:04:58.725Z,4.55
2022-08-10T05:07:25.713Z,6.38
2022-08-10T05:10:02.231Z,4.80
2022-08-10T05:12:35.844Z,4.43
2022-08-10T05:15:12.271Z,4.68
2022-08-10T05:17:40.890Z,4.90
2022-08-10T05:20:27.603Z,4.82
2022-08-10T05:22:54.248Z,5.65
2022-08-10T05:25:21.044Z,4.90
2022-08-10T05:27:48.158Z,5.15
2022-08-10T05:30:20.032Z,4.95
2022-08-10T05:32:57.678Z,5.22
2022-08-10T05:35:27.515Z,4.60
2022-08-10T05:38:11.510Z,5.60
2022-08-10T05:40:46.224Z,5.47
2022-08-10T05:43:16.907Z,6.10
2022-08-10T05:46:16.706Z,4.53
2022-08-10T05:48:57.767Z,5.25
2022-08-10T05:51:19.671Z,4.80
2022-08-10T05:54:03.317Z,5.40
2022-08-10T05:56:53.391Z,3.80
2022-08-10T06:00:35.037Z,4.25
2022-08-10T06:02:31.177Z,5.25
2022-08-10T06:05:00.980Z,5.37
2022-08-10T06:07:28.871Z,5.03
2022-08-10T06:09:59.125Z,6.07
2022-08-10T06:12:30.303Z,5.50
2022-08-10T06:15:05.278Z,10.50
2022-08-10T06:17:33.165Z,5.80
2022-08-10T06:20:00.651Z,6.10
2022-08-10T06:22:28.051Z,8.85
2022-08-10T06:25:27.040Z,6.10
2022-08-10T06:27:44.063Z,6.10
2022-08-10T06:30:19.830Z,4.93
2022-08-10T06:32:49.398Z,4.50
2022-08-10T06:35:16.778Z,7.28
2022-08-10T06:37:44.105Z,6.38
2022-08-10T06:40:18.333Z,5.32
2022-08-10T06:42:47.811Z,5.50
2022-08-10T06:45:21.157Z,6.22
2022-08-10T06:47:50.827Z,5.13
2022-08-10T06:50:34.782Z,7.55
2022-08-10T06:53:12.913Z,6.82
2022-08-10T06:55:55.130Z,6.40
2022-08-10T06:58:26.858Z,5.20
2022-08-10T07:00:55.622Z,6.60
2022-08-10T07:03:26.830Z,5.35
2022-08-10T07:05:54.592Z,5.13
2022-08-10T07:08:21.987Z,8.83
2022-08-10T07:10:49.172Z,5.18
2022-08-10T07:14:16.997Z,7.05
2022-08-10T07:16:04.574Z,4.95
2022-08-10T07:18:31.978Z,6.35
2022-08-10T07:20:59.132Z,5.20
2022-08-10T07:23:58.155Z,5.03
2022-08-10T07:26:15.519Z,5.20
2022-08-10T07:28:47.514Z,6.03
2022-08-10T07:31:36.020Z,6.13
2022-08-10T07:34:06.574Z,6.57
2022-08-10T07:36:33.791Z,6.03
2022-08-10T07:39:00.843Z,7.95
2022-08-10T07:41:30.683Z,5.70
2022-08-10T07:43:58.543Z,6.68
2022-08-10T07:46:26.709Z,6.00
2022-08-10T07:49:24.123Z,6.35
2022-08-10T07:51:54.497Z,5.85
2022-08-10T07:54:23.340Z,6.32
2022-08-10T07:56:52.216Z,5.45
2022-08-10T07:59:23.748Z,4.47
2022-08-10T08:01:52.353Z,6.93
2022-08-10T08:04:21.126Z,5.22
2022-08-10T08:06:48.990Z,7.05
2022-08-10T08:09:15.864Z,6.78
2022-08-10T08:11:44.090Z,6.37
2022-08-10T08:14:11.565Z,7.15
2022-08-10T08:16:42.034Z,4.75
2022-08-10T08:19:26.817Z,5.20
2022-08-10T08:24:09.712Z,6.82
2022-08-10T08:24:42.777Z,4.97
2022-08-10T08:27:11.587Z,6.88
2022-08-10T08:29:41.383Z,7.07
2022-08-10T08:32:08.645Z,5.43
2022-08-10T08:34:38.998Z,5.85
2022-08-10T08:37:07.889Z,4.73
2022-08-10T08:39:36.917Z,5.47
2022-08-10T08:42:15.706Z,5.20
2022-08-10T08:45:01.184Z,6.75
2022-08-10T08:48:03.352Z,5.30
2022-08-10T08:50:37.456Z,7.53
2022-08-10T08:54:03.054Z,6.13
2022-08-10T08:56:50.590Z,5.28
2022-08-10T08:59:23.388Z,5.68
2022-08-10T09:02:27.904Z,4.90
2022-08-10T09:05:07.311Z,15.57
2022-08-10T09:08:03.253Z,10.82
2022-08-10T09:10:50.655Z,6.53
2022-08-10T09:13:27.148Z,7.88
2022-08-10T09:16:08.955Z,5.53
2022-08-10T09:18:44.336Z,5.80
2022-08-10T09:21:20.082Z,6.32
2022-08-10T09:24:11.065Z,5.32
2022-08-10T09:26:40.651Z,5.22
2022-08-10T09:29:13.295Z,4.38
2022-08-10T09:33:05.260Z,8.70
2022-08-10T09:36:19.321Z,8.23
2022-08-10T09:38:03.866Z,4.93
2022-08-10T09:40:59.562Z,4.95
2022-08-10T09:43:31.965Z,6.35
2022-08-10T09:46:11.059Z,13.07
2022-08-10T09:48:54.763Z,6.63
2022-08-10T09:51:46.997Z,6.00
2022-08-10T09:54:17.634Z,6.20
2022-08-10T09:56:59.825Z,6.70
2022-08-10T10:00:21.695Z,8.17
2022-08-10T10:02:57.405Z,7.63
2022-08-10T10:06:01.436Z,4.53
2022-08-10T10:08:53.692Z,5.95
2022-08-10T10:11:46.562Z,4.80
2022-08-10T10:14:22.498Z,8.70
2022-08-10T10:17:16.605Z,7.22
2022-08-10T10:19:59.272Z,7.40
2022-08-10T10:22:45.137Z,6.53
2022-08-10T10:25:24.200Z,5.43
2022-08-10T10:28:57.576Z,8.77
2022-08-10T10:31:25.259Z,10.15
2022-08-10T10:34:00.389Z,10.07
2022-08-10T10:36:27.788Z,6.68
2022-08-10T10:38:55.985Z,14.75
2022-08-10T10:41:28.649Z,8.00
2022-08-10T10:43:58.003Z,5.75
2022-08-10T10:46:51.523Z,9.13
2022-08-10T10:49:39.940Z,8.27
2022-08-10T10:52:17.137Z,5.50
2022-08-10T10:55:10.164Z,7.90
2022-08-10T10:58:00.526Z,8.18
2022-08-10T11:00:42.685Z,5.10
2022-08-10T11:03:27.968Z,8.18
2022-08-10T11:06:40.165Z,9.50
2022-08-10T11:10:05.527Z,4.27
2022-08-10T11:12:07.131Z,4.35
2022-08-10T11:14:46.173Z,4.63
2022-08-10T11:17:34.881Z,6.05
2022-08-10T11:21:01.374Z,5.15
2022-08-10T11:23:45.548Z,5.33
2022-08-10T11:27:07.698Z,4.97
2022-08-10T11:29:43.884Z,6.60
2022-08-10T11:33:00.959Z,4.57
2022-08-10T11:35:44.194Z,3.85
2022-08-10T11:38:43.029Z,4.70
2022-08-10T11:42:12.498Z,3.92
2022-08-10T11:44:48.504Z,4.80
2022-08-10T11:47:34.283Z,4.15
2022-08-10T11:50:07.524Z,4.30
2022-08-10T11:52:54.038Z,8.00
2022-08-10T11:55:21.603Z,4.05
2022-08-10T11:57:54.859Z,6.40
2022-08-10T12:00:23.738Z,5.45
2022-08-10T12:02:57.678Z,5.20
2022-08-10T12:05:52.593Z,4.40
2022-08-10T12:10:07.642Z,4.57
2022-08-10T12:11:06.476Z,4.30
2022-08-10T12:14:19.647Z,4.88
2022-08-10T12:16:48.457Z,4.90
2022-08-10T12:19:28.859Z,4.27
2022-08-10T12:22:06.052Z,4.13
2022-08-10T12:24:57.102Z,4.72
2022-08-10T12:27:39.616Z,5.63
2022-08-10T12:30:11.751Z,5.10
2022-08-10T12:33:02.278Z,4.13
2022-08-10T12:35:56.075Z,4.90
2022-08-10T12:38:44.800Z,4.45
2022-08-10T12:41:25.390Z,4.68
2022-08-10T12:44:35.741Z,5.38
2022-08-10T12:47:17.342Z,4.67
2022-08-10T12:50:29.729Z,4.88
2022-08-10T12:53:26.343Z,3.92
2022-08-10T12:55:53.766Z,5.72
2022-08-10T12:58:59.720Z,5.97
2022-08-10T13:01:17.768Z,5.03
2022-08-10T13:04:20.930Z,4.82
2022-08-10T13:06:41.797Z,5.07
2022-08-10T13:09:09.339Z,5.63
2022-08-10T13:12:38.398Z,4.90
2022-08-10T13:14:54.075Z,4.97
2022-08-10T13:17:38.972Z,4.53
2022-08-10T13:20:16.715Z,5.95
2022-08-10T13:22:44.464Z,3.97
2022-08-10T13:25:11.584Z,5.30
2022-08-10T13:28:02.718Z,4.80
2022-08-10T13:30:35.722Z,3.97
2022-08-10T13:33:05.653Z,4.07
2022-08-10T13:35:32.892Z,4.07
2022-08-10T13:38:01.882Z,4.60
2022-08-10T13:40:29.189Z,4.53
2022-08-10T13:42:58.551Z,4.25
2022-08-10T13:45:26.926Z,5.60
2022-08-10T13:48:09.806Z,5.45
2022-08-10T13:50:37.779Z,4.90
2022-08-10T13:53:14.978Z,5.73
2022-08-10T13:55:56.103Z,12.90
2022-08-10T13:58:31.735Z,4.75
2022-08-10T14:00:59.937Z,8.20
2022-08-10T14:03:27.703Z,5.00
2022-08-10T14:05:59.681Z,6.00
2022-08-10T14:08:31.770Z,5.82
2022-08-10T14:11:11.586Z,7.05
2022-08-10T14:14:06.294Z,6.03
2022-08-10T14:16:33.647Z,5.88
2022-08-10T14:19:11.883Z,9.53
2022-08-10T14:21:42.189Z,5.68
2022-08-10T14:24:26.609Z,5.35
2022-08-10T14:27:24.936Z,5.07
2022-08-10T14:30:14.634Z,5.28
2022-08-10T14:32:47.138Z,6.63
2022-08-10T14:36:23.847Z,6.45
2022-08-10T14:38:10.705Z,9.02
2022-08-10T14:40:43.944Z,8.32
2022-08-10T14:43:28.649Z,5.72
2022-08-10T14:46:04.050Z,7.10
2022-08-10T14:48:34.739Z,7.30
2022-08-10T14:51:05.744Z,5.22
2022-08-10T14:53:36.018Z,5.60
2022-08-10T14:56:06.345Z,5.55
2022-08-10T14:58:38.691Z,5.47
2022-08-10T15:01:06.877Z,4.75
2022-08-10T15:04:02.302Z,4.47
2022-08-10T15:06:30.602Z,6.25
2022-08-10T15:09:19.633Z,5.63
2022-08-10T15:12:14.079Z,10.53
2022-08-10T15:14:43.222Z,16.70
2022-08-10T15:17:13.548Z,18.02
2022-08-10T15:20:02.601Z,26.00
2022-08-10T15:22:38.360Z,22.35
2022-08-10T15:25:17.780Z,23.63
2022-08-10T15:27:53.586Z,20.80
2022-08-10T15:30:30.092Z,19.63
2022-08-10T15:33:21.384Z,18.73
2022-08-10T15:36:24.349Z,16.27
2022-08-10T15:38:59.748Z,13.17
2022-08-10T15:41:57.871Z,10.45
2022-08-10T15:44:42.210Z,11.73
2022-08-10T15:47:23.203Z,8.63
2022-08-10T15:49:52.899Z,10.77
2022-08-10T15:52:40.163Z,8.03
2022-08-10T15:55:44.001Z,6.90
2022-08-10T15:58:08.240Z,6.65
2022-08-10T16:00:38.762Z,8.90
2022-08-10T16:03:16.107Z,5.60
2022-08-10T16:06:02.183Z,5.60
2022-08-10T16:08:56.229Z,5.75
2022-08-10T16:11:37.566Z,6.60
2022-08-10T16:14:19.473Z,6.13
2022-08-10T16:16:50.229Z,4.63
2022-08-10T16:19:23.798Z,5.67
2022-08-10T16:22:01.803Z,7.45
2022-08-10T16:24:34.284Z,6.43
2022-08-10T16:27:04.876Z,7.50
2022-08-10T16:29:32.570Z,6.45
2022-08-10T16:32:22.413Z,8.30
2022-08-10T16:34:50.821Z,5.88
2022-08-10T16:37:18.884Z,5.78
2022-08-10T16:39:59.930Z,4.57
2022-08-10T16:42:31.637Z,4.97
2022-08-10T16:45:01.883Z,4.73
2022-08-10T16:47:29.437Z,5.03
2022-08-10T16:49:59.862Z,4.22
2022-08-10T16:52:29.157Z,5.07
2022-08-10T16:55:24.533Z,5.53
2022-08-10T16:58:08.766Z,5.57
2022-08-10T17:00:35.614Z,4.13
2022-08-10T17:04:04.838Z,5.72
2022-08-10T17:06:03.561Z,4.63
2022-08-10T17:08:48.197Z,5.03
2022-08-10T17:11:17.545Z,4.90
2022-08-10T17:13:44.334Z,5.68
2022-08-10T17:16:12.480Z,6.97
2022-08-10T17:18:41.374Z,5.88
2022-08-10T17:21:23.528Z,4.78
2022-08-10T17:23:52.648Z,4.10
2022-08-10T17:26:27.004Z,5.82
2022-08-10T17:29:53.569Z,6.40
2022-08-10T17:32:06.941Z,9.25
2022-08-10T17:34:37.076Z,9.20
2022-08-10T17:37:06.064Z,8.83
2022-08-10T17:39:41.097Z,8.93
2022-08-10T17:42:08.159Z,11.02
2022-08-10T17:44:38.938Z,13.57
2022-08-10T17:47:10.659Z,9.02
2022-08-10T17:49:38.722Z,18.73
2022-08-10T17:52:07.983Z,15.77
2022-08-10T17:54:44.347Z,15.48
2022-08-10T17:57:21.230Z,17.52
2022-08-10T17:59:51.136Z,13.20
2022-08-10T18:02:21.658Z,16.63
2022-08-10T18:04:58.192Z,8.98
2022-08-10T18:07:38.806Z,10.82
2022-08-10T18:10:08.882Z,10.38
2022-08-10T18:12:47.900Z,7.90
2022-08-10T18:15:19.267Z,9.67
2022-08-10T18:17:58.328Z,10.90
2022-08-10T18:20:32.584Z,7.80
2022-08-10T18:22:59.662Z,8.70
2022-08-10T18:25:30.138Z,6.65
2022-08-10T18:28:01.605Z,8.03
2022-08-10T18:30:36.427Z,5.80
2022-08-10T18:33:05.183Z,4.93
2022-08-10T18:35:34.581Z,8.00
2022-08-10T18:38:02.725Z,4.85
2022-08-10T18:40:35.578Z,6.13
2022-08-10T18:43:08.557Z,6.05
2022-08-10T18:45:53.115Z,5.25
2022-08-10T18:48:21.595Z,4.15
2022-08-10T18:50:53.552Z,5.68
2022-08-10T18:53:28.673Z,6.23
2022-08-10T18:56:09.615Z,6.90
2022-08-10T18:59:03.081Z,4.07
2022-08-10T19:01:42.076Z,6.88
2022-08-10T19:04:27.715Z,6.10
2022-08-10T19:07:03.107Z,5.90
2022-08-10T19:09:55.696Z,5.18
2022-08-10T19:12:55.765Z,5.05
2022-08-10T19:15:35.970Z,5.68
2022-08-10T19:18:11.957Z,5.55
2022-08-10T19:20:50.461Z,8.17
2022-08-10T19:23:55.835Z,7.32
2022-08-10T19:26:46.780Z,8.52
2022-08-10T19:30:04.984Z,5.45
2022-08-10T19:32:31.874Z,4.47
2022-08-10T19:35:04.720Z,6.33
2022-08-10T19:38:17.041Z,5.00
2022-08-10T19:41:09.058Z,5.70
2022-08-10T19:44:01.357Z,5.95
2022-08-10T19:46:41.910Z,5.68
2022-08-10T19:49:32.730Z,5.83
2022-08-10T19:52:40.062Z,3.70
2022-08-10T19:55:39.010Z,4.22
2022-08-10T19:58:40.851Z,6.65
2022-08-10T20:01:07.896Z,5.28
2022-08-10T20:03:55.683Z,5.93
2022-08-10T20:06:36.743Z,4.00
2022-08-10T20:09:29.394Z,5.43
2022-08-10T20:12:13.357Z,4.40
2022-08-10T20:14:49.930Z,4.10
2022-08-10T20:17:45.117Z,4.13
2022-08-10T20:20:31.377Z,4.57
2022-08-10T20:23:17.872Z,5.68
2022-08-10T20:25:49.203Z,4.78
2022-08-10T20:28:34.432Z,3.50
2022-08-10T20:31:17.076Z,4.10
2022-08-10T20:34:01.297Z,3.70
2022-08-10T20:36:32.076Z,5.97
2022-08-10T20:39:36.097Z,4.22
2022-08-10T20:42:19.214Z,3.90
2022-08-10T20:45:10.470Z,3.70
2022-08-10T20:47:55.311Z,3.90
2022-08-10T20:50:42.282Z,4.40
2022-08-10T20:53:12.720Z,3.60
2022-08-10T20:56:10.794Z,3.70
2022-08-10T20:59:08.862Z,4.97
2022-08-10T21:02:06.280Z,6.47
2022-08-10T21:05:02.699Z,5.22
2022-08-10T21:08:01.608Z,3.75
2022-08-10T21:10:56.734Z,4.97
2022-08-10T21:13:46.245Z,5.00
2022-08-10T21:16:37.497Z,5.38
2022-08-10T21:19:23.490Z,5.85
2022-08-10T21:22:08.697Z,5.18
2022-08-10T21:24:41.615Z,4.10
2022-08-10T21:27:33.332Z,4.37
2022-08-10T21:30:20.536Z,3.92
2022-08-10T21:33:07.306Z,4.35
2022-08-10T21:35:46.359Z,3.63
2022-08-10T21:38:28.685Z,4.15
2022-08-10T21:41:56.432Z,5.70
2022-08-10T21:45:08.821Z,4.88
2022-08-10T21:48:19.114Z,4.50
2022-08-10T21:51:24.627Z,6.03
2022-08-10T21:54:31.172Z,4.95
2022-08-10T21:57:29.063Z,7.50
2022-08-10T22:00:31.585Z,4.15
2022-08-10T22:03:17.892Z,3.92
2022-08-10T22:06:08.019Z,4.13
2022-08-10T22:09:06.904Z,4.53
2022-08-10T22:12:00.401Z,4.70
2022-08-10T22:14:53.238Z,4.20
2022-08-10T22:17:59.326Z,5.40
2022-08-10T22:20:56.025Z,4.43
2022-08-10T22:23:41.350Z,3.58
2022-08-10T22:26:44.707Z,4.33
2022-08-10T22:30:00.188Z,4.20
2022-08-10T22:33:24.369Z,5.88
2022-08-10T22:36:40.078Z,3.60
2022-08-10T22:40:10.158Z,4.05
2022-08-10T22:43:10.050Z,5.47
2022-08-10T22:46:02.667Z,3.72
2022-08-10T22:48:47.983Z,4.60
2022-08-10T22:51:21.462Z,4.05
2022-08-10T22:54:30.393Z,4.10
2022-08-10T22:57:24.979Z,4.33
2022-08-10T22:59:51.872Z,4.65
2022-08-10T23:02:38.868Z,3.90
2022-08-10T23:05:13.250Z,5.88
2022-08-10T23:07:49.544Z,5.07
2022-08-10T23:10:18.962Z,5.00
2022-08-10T23:12:58.179Z,4.72
2022-08-10T23:15:47.446Z,4.75
2022-08-10T23:18:37.619Z,4.78
2022-08-10T23:21:05.165Z,5.50
2022-08-10T23:23:38.976Z,4.67
2022-08-10T23:26:06.982Z,4.40
2022-08-10T23:28:39.343Z,3.92
2022-08-10T23:31:59.134Z,4.97
2022-08-10T23:34:13.158Z,6.25
2022-08-10T23:36:42.210Z,6.27
2022-08-10T23:39:25.244Z,4.95
2022-08-10T23:41:58.292Z,4.82
2022-08-10T23:44:33.610Z,4.28
2022-08-10T23:47:01.676Z,6.47
2022-08-10T23:49:34.150Z,4.73
2022-08-10T23:52:01.295Z,6.97
2022-08-10T23:54:28.290Z,8.90
2022-08-10T23:57:00.926Z,4.32
2022-08-10T23:59:31.777Z,5.38
